sensor_id;sensor_type;location;lat;lon;timestamp;temperature;humidity
14733;DHT22;7457;50.960;6.830;2023-02-18T00:02:11;10.70;92.50
14733;DHT22;7457;50.960;6.830;2023-02-18T00:04:36;10.70;92.70
14733;DHT22;7457;50.960;6.830;2023-02-18T00:07:02;10.70;92.70
14733;DHT22;7457;50.960;6.830;2023-02-18T00:09:27;10.70;92.70
14733;DHT22;7457;50.960;6.830;2023-02-18T00:11:53;10.70;92.70
14733;DHT22;7457;50.960;6.830;2023-02-18T00:14:19;10.70;92.90
14733;DHT22;7457;50.960;6.830;2023-02-18T00:16:45;10.70;92.90
14733;DHT22;7457;50.960;6.830;2023-02-18T00:19:14;10.70;92.90
14733;DHT22;7457;50.960;6.830;2023-02-18T00:21:40;10.70;92.90
14733;DHT22;7457;50.960;6.830;2023-02-18T00:24:07;10.70;92.90
14733;DHT22;7457;50.960;6.830;2023-02-18T00:26:33;10.70;92.90
14733;DHT22;7457;50.960;6.830;2023-02-18T00:28:59;10.70;92.90
14733;DHT22;7457;50.960;6.830;2023-02-18T00:31:31;10.70;92.90
14733;DHT22;7457;50.960;6.830;2023-02-18T00:33:58;10.60;93.00
14733;DHT22;7457;50.960;6.830;2023-02-18T00:36:24;10.60;93.10
14733;DHT22;7457;50.960;6.830;2023-02-18T00:38:55;10.70;93.00
14733;DHT22;7457;50.960;6.830;2023-02-18T00:41:23;10.60;93.20
14733;DHT22;7457;50.960;6.830;2023-02-18T00:43:49;10.70;93.10
14733;DHT22;7457;50.960;6.830;2023-02-18T00:46:14;10.60;93.20
14733;DHT22;7457;50.960;6.830;2023-02-18T00:48:40;10.60;93.20
14733;DHT22;7457;50.960;6.830;2023-02-18T00:51:06;10.60;93.30
14733;DHT22;7457;50.960;6.830;2023-02-18T00:53:33;10.60;93.20
14733;DHT22;7457;50.960;6.830;2023-02-18T00:55:59;10.60;93.40
14733;DHT22;7457;50.960;6.830;2023-02-18T00:58:25;10.60;93.40
14733;DHT22;7457;50.960;6.830;2023-02-18T01:00:52;10.60;93.30
14733;DHT22;7457;50.960;6.830;2023-02-18T01:03:18;10.70;93.30
14733;DHT22;7457;50.960;6.830;2023-02-18T01:05:44;10.60;93.30
14733;DHT22;7457;50.960;6.830;2023-02-18T01:08:10;10.60;93.30
14733;DHT22;7457;50.960;6.830;2023-02-18T01:10:41;10.60;93.40
14733;DHT22;7457;50.960;6.830;2023-02-18T01:13:07;10.60;93.30
14733;DHT22;7457;50.960;6.830;2023-02-18T01:15:32;10.60;93.40
14733;DHT22;7457;50.960;6.830;2023-02-18T01:17:58;10.60;93.30
14733;DHT22;7457;50.960;6.830;2023-02-18T01:20:25;10.60;93.30
14733;DHT22;7457;50.960;6.830;2023-02-18T01:22:51;10.60;93.50
14733;DHT22;7457;50.960;6.830;2023-02-18T01:25:17;10.60;93.40
14733;DHT22;7457;50.960;6.830;2023-02-18T01:27:43;10.60;93.50
14733;DHT22;7457;50.960;6.830;2023-02-18T01:30:11;10.60;93.50
14733;DHT22;7457;50.960;6.830;2023-02-18T01:32:38;10.60;93.50
14733;DHT22;7457;50.960;6.830;2023-02-18T01:35:06;10.60;93.60
14733;DHT22;7457;50.960;6.830;2023-02-18T01:37:32;10.60;93.60
14733;DHT22;7457;50.960;6.830;2023-02-18T01:39:58;10.60;93.50
14733;DHT22;7457;50.960;6.830;2023-02-18T01:42:26;10.60;93.50
14733;DHT22;7457;50.960;6.830;2023-02-18T01:44:53;10.60;93.60
14733;DHT22;7457;50.960;6.830;2023-02-18T01:47:20;10.60;93.70
14733;DHT22;7457;50.960;6.830;2023-02-18T01:49:49;10.60;93.60
14733;DHT22;7457;50.960;6.830;2023-02-18T01:52:25;10.50;93.90
14733;DHT22;7457;50.960;6.830;2023-02-18T01:54:55;10.50;93.90
14733;DHT22;7457;50.960;6.830;2023-02-18T02:00:03;10.40;94.30
14733;DHT22;7457;50.960;6.830;2023-02-18T02:02:31;10.40;94.40
14733;DHT22;7457;50.960;6.830;2023-02-18T02:04:58;10.40;94.50
14733;DHT22;7457;50.960;6.830;2023-02-18T02:07:25;10.40;94.40
14733;DHT22;7457;50.960;6.830;2023-02-18T02:09:52;10.30;94.70
14733;DHT22;7457;50.960;6.830;2023-02-18T02:12:54;10.40;94.90
14733;DHT22;7457;50.960;6.830;2023-02-18T02:16:17;10.30;95.00
14733;DHT22;7457;50.960;6.830;2023-02-18T02:18:48;10.30;94.90
14733;DHT22;7457;50.960;6.830;2023-02-18T02:35:49;10.40;95.00
14733;DHT22;7457;50.960;6.830;2023-02-18T02:47:08;10.50;94.90
14733;DHT22;7457;50.960;6.830;2023-02-18T02:49:59;10.50;94.80
14733;DHT22;7457;50.960;6.830;2023-02-18T02:52:48;10.50;94.90
14733;DHT22;7457;50.960;6.830;2023-02-18T02:55:14;10.50;94.70
14733;DHT22;7457;50.960;6.830;2023-02-18T02:57:43;10.50;94.70
14733;DHT22;7457;50.960;6.830;2023-02-18T03:00:12;10.50;94.80
14733;DHT22;7457;50.960;6.830;2023-02-18T03:05:43;10.60;94.60
14733;DHT22;7457;50.960;6.830;2023-02-18T03:08:24;10.60;94.60
14733;DHT22;7457;50.960;6.830;2023-02-18T03:11:04;10.50;94.60
14733;DHT22;7457;50.960;6.830;2023-02-18T03:21:38;10.60;94.90
14733;DHT22;7457;50.960;6.830;2023-02-18T03:24:35;10.60;94.90
14733;DHT22;7457;50.960;6.830;2023-02-18T03:27:32;10.60;95.00
14733;DHT22;7457;50.960;6.830;2023-02-18T03:30:08;10.60;95.10
14733;DHT22;7457;50.960;6.830;2023-02-18T03:32:35;10.60;95.30
14733;DHT22;7457;50.960;6.830;2023-02-18T03:35:08;10.50;95.40
14733;DHT22;7457;50.960;6.830;2023-02-18T03:37:38;10.50;95.40
14733;DHT22;7457;50.960;6.830;2023-02-18T03:40:08;10.50;95.70
14733;DHT22;7457;50.960;6.830;2023-02-18T03:42:34;10.40;96.00
14733;DHT22;7457;50.960;6.830;2023-02-18T03:45:00;10.40;96.10
14733;DHT22;7457;50.960;6.830;2023-02-18T03:47:26;10.30;96.20
14733;DHT22;7457;50.960;6.830;2023-02-18T03:49:51;10.30;96.30
14733;DHT22;7457;50.960;6.830;2023-02-18T03:52:17;10.30;96.30
14733;DHT22;7457;50.960;6.830;2023-02-18T03:54:43;10.30;96.50
14733;DHT22;7457;50.960;6.830;2023-02-18T03:57:08;10.20;96.80
14733;DHT22;7457;50.960;6.830;2023-02-18T03:59:34;10.20;97.00
14733;DHT22;7457;50.960;6.830;2023-02-18T04:02:00;10.20;97.20
14733;DHT22;7457;50.960;6.830;2023-02-18T04:04:25;10.20;97.20
14733;DHT22;7457;50.960;6.830;2023-02-18T04:06:51;10.20;97.20
14733;DHT22;7457;50.960;6.830;2023-02-18T04:09:16;10.20;97.40
14733;DHT22;7457;50.960;6.830;2023-02-18T04:11:42;10.20;97.40
14733;DHT22;7457;50.960;6.830;2023-02-18T04:14:08;10.20;97.50
14733;DHT22;7457;50.960;6.830;2023-02-18T04:16:33;10.20;97.60
14733;DHT22;7457;50.960;6.830;2023-02-18T04:18:59;10.10;97.80
14733;DHT22;7457;50.960;6.830;2023-02-18T04:21:25;10.20;97.70
14733;DHT22;7457;50.960;6.830;2023-02-18T04:23:50;10.10;97.80
14733;DHT22;7457;50.960;6.830;2023-02-18T04:26:16;10.10;97.90
14733;DHT22;7457;50.960;6.830;2023-02-18T04:28:41;10.10;97.90
14733;DHT22;7457;50.960;6.830;2023-02-18T04:31:07;10.10;98.00
14733;DHT22;7457;50.960;6.830;2023-02-18T04:33:33;10.10;98.10
14733;DHT22;7457;50.960;6.830;2023-02-18T04:35:58;10.10;98.30
14733;DHT22;7457;50.960;6.830;2023-02-18T04:38:24;10.00;98.40
14733;DHT22;7457;50.960;6.830;2023-02-18T04:40:49;10.00;98.60
14733;DHT22;7457;50.960;6.830;2023-02-18T04:43:15;10.00;98.70
14733;DHT22;7457;50.960;6.830;2023-02-18T04:45:40;10.00;98.70
14733;DHT22;7457;50.960;6.830;2023-02-18T04:48:06;10.00;98.70
14733;DHT22;7457;50.960;6.830;2023-02-18T04:50:32;10.00;98.70
14733;DHT22;7457;50.960;6.830;2023-02-18T04:52:58;10.00;98.90
14733;DHT22;7457;50.960;6.830;2023-02-18T04:55:23;10.00;98.90
14733;DHT22;7457;50.960;6.830;2023-02-18T04:57:49;10.00;98.90
14733;DHT22;7457;50.960;6.830;2023-02-18T05:00:17;9.90;99.00
14733;DHT22;7457;50.960;6.830;2023-02-18T05:02:44;9.90;99.20
14733;DHT22;7457;50.960;6.830;2023-02-18T05:05:10;9.90;99.30
14733;DHT22;7457;50.960;6.830;2023-02-18T05:07:36;9.90;99.60
14733;DHT22;7457;50.960;6.830;2023-02-18T05:10:02;9.80;99.70
14733;DHT22;7457;50.960;6.830;2023-02-18T05:12:28;9.80;99.80
14733;DHT22;7457;50.960;6.830;2023-02-18T05:14:54;9.80;100.00
14733;DHT22;7457;50.960;6.830;2023-02-18T05:17:19;9.70;100.00
14733;DHT22;7457;50.960;6.830;2023-02-18T05:19:45;9.70;100.00
14733;DHT22;7457;50.960;6.830;2023-02-18T05:22:10;9.70;100.00
14733;DHT22;7457;50.960;6.830;2023-02-18T05:24:36;9.70;100.00
14733;DHT22;7457;50.960;6.830;2023-02-18T05:27:02;9.70;100.00
14733;DHT22;7457;50.960;6.830;2023-02-18T05:29:27;9.70;100.00
14733;DHT22;7457;50.960;6.830;2023-02-18T05:31:53;9.70;100.00
14733;DHT22;7457;50.960;6.830;2023-02-18T05:34:19;9.60;100.00
14733;DHT22;7457;50.960;6.830;2023-02-18T05:36:44;9.60;100.00
14733;DHT22;7457;50.960;6.830;2023-02-18T05:39:10;9.60;100.00
14733;DHT22;7457;50.960;6.830;2023-02-18T05:41:35;9.60;100.00
14733;DHT22;7457;50.960;6.830;2023-02-18T05:44:01;9.60;100.00
14733;DHT22;7457;50.960;6.830;2023-02-18T05:46:45;9.60;100.00
14733;DHT22;7457;50.960;6.830;2023-02-18T05:49:11;9.60;100.00
14733;DHT22;7457;50.960;6.830;2023-02-18T05:51:37;9.60;100.00
14733;DHT22;7457;50.960;6.830;2023-02-18T05:54:03;9.60;100.00
14733;DHT22;7457;50.960;6.830;2023-02-18T05:56:29;9.60;100.00
14733;DHT22;7457;50.960;6.830;2023-02-18T05:58:54;9.60;100.00
14733;DHT22;7457;50.960;6.830;2023-02-18T06:01:20;9.60;100.00
14733;DHT22;7457;50.960;6.830;2023-02-18T06:03:45;9.60;100.00
14733;DHT22;7457;50.960;6.830;2023-02-18T06:06:11;9.60;100.00
14733;DHT22;7457;50.960;6.830;2023-02-18T06:08:37;9.60;100.00
14733;DHT22;7457;50.960;6.830;2023-02-18T06:11:02;9.60;100.00
14733;DHT22;7457;50.960;6.830;2023-02-18T06:13:28;9.60;100.00
14733;DHT22;7457;50.960;6.830;2023-02-18T06:15:54;9.60;100.00
14733;DHT22;7457;50.960;6.830;2023-02-18T06:18:20;9.60;100.00
14733;DHT22;7457;50.960;6.830;2023-02-18T06:20:47;9.60;100.00
14733;DHT22;7457;50.960;6.830;2023-02-18T06:23:14;9.60;100.00
14733;DHT22;7457;50.960;6.830;2023-02-18T06:25:40;9.60;100.00
14733;DHT22;7457;50.960;6.830;2023-02-18T06:28:05;9.50;100.00
14733;DHT22;7457;50.960;6.830;2023-02-18T06:30:31;9.50;100.00
14733;DHT22;7457;50.960;6.830;2023-02-18T06:32:57;9.60;100.00
14733;DHT22;7457;50.960;6.830;2023-02-18T06:35:22;9.60;100.00
14733;DHT22;7457;50.960;6.830;2023-02-18T06:37:48;9.60;100.00
14733;DHT22;7457;50.960;6.830;2023-02-18T06:40:14;9.60;100.00
14733;DHT22;7457;50.960;6.830;2023-02-18T06:42:39;9.70;100.00
14733;DHT22;7457;50.960;6.830;2023-02-18T06:45:05;9.70;100.00
14733;DHT22;7457;50.960;6.830;2023-02-18T06:47:31;9.70;100.00
14733;DHT22;7457;50.960;6.830;2023-02-18T06:49:57;9.70;100.00
14733;DHT22;7457;50.960;6.830;2023-02-18T06:52:23;9.80;100.00
14733;DHT22;7457;50.960;6.830;2023-02-18T06:54:48;9.80;100.00
14733;DHT22;7457;50.960;6.830;2023-02-18T06:57:14;9.80;100.00
14733;DHT22;7457;50.960;6.830;2023-02-18T06:59:39;9.80;100.00
14733;DHT22;7457;50.960;6.830;2023-02-18T07:02:05;9.90;99.90
14733;DHT22;7457;50.960;6.830;2023-02-18T07:04:31;9.90;99.70
14733;DHT22;7457;50.960;6.830;2023-02-18T07:06:57;9.90;99.60
14733;DHT22;7457;50.960;6.830;2023-02-18T07:09:22;9.90;99.40
14733;DHT22;7457;50.960;6.830;2023-02-18T07:11:48;9.90;99.30
14733;DHT22;7457;50.960;6.830;2023-02-18T07:14:14;10.00;99.20
14733;DHT22;7457;50.960;6.830;2023-02-18T07:16:39;10.00;99.10
14733;DHT22;7457;50.960;6.830;2023-02-18T07:19:05;10.00;98.90
14733;DHT22;7457;50.960;6.830;2023-02-18T07:21:30;10.00;98.60
14733;DHT22;7457;50.960;6.830;2023-02-18T07:23:56;10.00;98.50
14733;DHT22;7457;50.960;6.830;2023-02-18T07:26:21;10.10;98.30
14733;DHT22;7457;50.960;6.830;2023-02-18T07:28:47;10.10;98.20
14733;DHT22;7457;50.960;6.830;2023-02-18T07:31:13;10.10;98.00
14733;DHT22;7457;50.960;6.830;2023-02-18T07:33:38;10.20;97.80
14733;DHT22;7457;50.960;6.830;2023-02-18T07:36:04;10.20;97.60
14733;DHT22;7457;50.960;6.830;2023-02-18T07:38:30;10.20;97.50
14733;DHT22;7457;50.960;6.830;2023-02-18T07:40:56;10.20;97.60
14733;DHT22;7457;50.960;6.830;2023-02-18T07:43:22;10.30;97.40
14733;DHT22;7457;50.960;6.830;2023-02-18T07:45:48;10.30;97.10
14733;DHT22;7457;50.960;6.830;2023-02-18T07:48:15;10.40;96.50
14733;DHT22;7457;50.960;6.830;2023-02-18T07:50:42;10.40;95.40
14733;DHT22;7457;50.960;6.830;2023-02-18T07:53:10;10.40;95.20
14733;DHT22;7457;50.960;6.830;2023-02-18T07:55:36;10.30;95.20
14733;DHT22;7457;50.960;6.830;2023-02-18T07:58:31;10.20;95.50
14733;DHT22;7457;50.960;6.830;2023-02-18T08:00:57;10.10;95.70
14733;DHT22;7457;50.960;6.830;2023-02-18T08:03:26;9.90;96.10
14733;DHT22;7457;50.960;6.830;2023-02-18T08:05:53;9.80;96.60
14733;DHT22;7457;50.960;6.830;2023-02-18T08:08:21;9.80;97.00
14733;DHT22;7457;50.960;6.830;2023-02-18T08:10:48;9.70;97.30
14733;DHT22;7457;50.960;6.830;2023-02-18T08:13:13;9.70;97.60
14733;DHT22;7457;50.960;6.830;2023-02-18T08:15:39;9.70;97.00
14733;DHT22;7457;50.960;6.830;2023-02-18T08:18:06;9.70;96.10
14733;DHT22;7457;50.960;6.830;2023-02-18T08:20:36;9.70;95.50
14733;DHT22;7457;50.960;6.830;2023-02-18T08:23:05;9.70;95.40
14733;DHT22;7457;50.960;6.830;2023-02-18T08:25:31;9.60;95.10
14733;DHT22;7457;50.960;6.830;2023-02-18T08:27:58;9.60;95.10
14733;DHT22;7457;50.960;6.830;2023-02-18T08:30:24;9.60;94.40
14733;DHT22;7457;50.960;6.830;2023-02-18T08:32:50;9.60;94.60
14733;DHT22;7457;50.960;6.830;2023-02-18T08:35:15;9.60;94.70
14733;DHT22;7457;50.960;6.830;2023-02-18T08:37:41;9.60;94.50
14733;DHT22;7457;50.960;6.830;2023-02-18T08:40:09;9.60;94.40
14733;DHT22;7457;50.960;6.830;2023-02-18T08:42:35;9.60;94.10
14733;DHT22;7457;50.960;6.830;2023-02-18T08:45:00;9.60;94.00
14733;DHT22;7457;50.960;6.830;2023-02-18T08:47:26;9.60;93.50
14733;DHT22;7457;50.960;6.830;2023-02-18T08:49:52;9.60;93.40
14733;DHT22;7457;50.960;6.830;2023-02-18T08:52:18;9.60;93.30
14733;DHT22;7457;50.960;6.830;2023-02-18T08:54:44;9.60;93.20
14733;DHT22;7457;50.960;6.830;2023-02-18T08:57:10;9.70;92.80
14733;DHT22;7457;50.960;6.830;2023-02-18T08:59:36;9.70;92.60
14733;DHT22;7457;50.960;6.830;2023-02-18T09:02:01;9.70;92.50
14733;DHT22;7457;50.960;6.830;2023-02-18T09:04:27;9.70;92.60
14733;DHT22;7457;50.960;6.830;2023-02-18T09:06:52;9.60;92.80
14733;DHT22;7457;50.960;6.830;2023-02-18T09:09:18;9.60;93.00
14733;DHT22;7457;50.960;6.830;2023-02-18T09:11:44;9.60;93.50
14733;DHT22;7457;50.960;6.830;2023-02-18T09:14:09;9.60;93.90
14733;DHT22;7457;50.960;6.830;2023-02-18T09:16:35;9.70;93.70
14733;DHT22;7457;50.960;6.830;2023-02-18T09:19:03;9.70;93.50
14733;DHT22;7457;50.960;6.830;2023-02-18T09:21:28;9.80;93.00
14733;DHT22;7457;50.960;6.830;2023-02-18T09:23:54;9.80;92.80
14733;DHT22;7457;50.960;6.830;2023-02-18T09:26:21;9.90;92.60
14733;DHT22;7457;50.960;6.830;2023-02-18T09:28:48;9.90;92.60
14733;DHT22;7457;50.960;6.830;2023-02-18T09:31:17;10.00;92.50
14733;DHT22;7457;50.960;6.830;2023-02-18T09:33:51;10.00;92.00
14733;DHT22;7457;50.960;6.830;2023-02-18T09:36:18;10.10;91.50
14733;DHT22;7457;50.960;6.830;2023-02-18T09:38:45;10.20;91.10
14733;DHT22;7457;50.960;6.830;2023-02-18T09:41:31;10.20;90.90
14733;DHT22;7457;50.960;6.830;2023-02-18T09:44:02;10.20;90.80
14733;DHT22;7457;50.960;6.830;2023-02-18T09:46:33;10.30;90.70
14733;DHT22;7457;50.960;6.830;2023-02-18T09:49:06;10.30;90.70
14733;DHT22;7457;50.960;6.830;2023-02-18T09:51:33;10.30;89.80
14733;DHT22;7457;50.960;6.830;2023-02-18T09:53:58;10.30;89.60
14733;DHT22;7457;50.960;6.830;2023-02-18T09:56:31;10.20;89.60
14733;DHT22;7457;50.960;6.830;2023-02-18T09:59:03;10.30;89.40
14733;DHT22;7457;50.960;6.830;2023-02-18T10:01:36;10.20;89.30
14733;DHT22;7457;50.960;6.830;2023-02-18T10:04:36;10.30;89.50
14733;DHT22;7457;50.960;6.830;2023-02-18T10:07:04;10.30;89.40
14733;DHT22;7457;50.960;6.830;2023-02-18T10:09:34;10.30;89.60
14733;DHT22;7457;50.960;6.830;2023-02-18T10:12:21;10.40;89.10
14733;DHT22;7457;50.960;6.830;2023-02-18T10:14:52;10.40;88.80
14733;DHT22;7457;50.960;6.830;2023-02-18T10:17:20;10.40;88.80
14733;DHT22;7457;50.960;6.830;2023-02-18T10:19:49;10.40;88.80
14733;DHT22;7457;50.960;6.830;2023-02-18T10:22:16;10.50;88.90
14733;DHT22;7457;50.960;6.830;2023-02-18T10:24:46;10.50;89.00
14733;DHT22;7457;50.960;6.830;2023-02-18T10:27:20;10.60;88.80
14733;DHT22;7457;50.960;6.830;2023-02-18T10:29:48;10.60;88.40
14733;DHT22;7457;50.960;6.830;2023-02-18T10:32:43;10.60;88.40
14733;DHT22;7457;50.960;6.830;2023-02-18T10:35:33;10.50;88.50
14733;DHT22;7457;50.960;6.830;2023-02-18T10:41:00;10.60;89.20
14733;DHT22;7457;50.960;6.830;2023-02-18T10:48:55;10.60;88.20
14733;DHT22;7457;50.960;6.830;2023-02-18T10:51:28;10.60;88.40
14733;DHT22;7457;50.960;6.830;2023-02-18T10:53:55;10.60;88.50
14733;DHT22;7457;50.960;6.830;2023-02-18T10:56:40;10.60;88.20
14733;DHT22;7457;50.960;6.830;2023-02-18T10:59:12;10.60;88.00
14733;DHT22;7457;50.960;6.830;2023-02-18T11:01:40;10.60;88.50
14733;DHT22;7457;50.960;6.830;2023-02-18T11:04:15;10.50;89.60
14733;DHT22;7457;50.960;6.830;2023-02-18T11:06:52;10.40;90.30
14733;DHT22;7457;50.960;6.830;2023-02-18T11:09:48;10.30;91.00
14733;DHT22;7457;50.960;6.830;2023-02-18T11:12:21;10.20;91.30
14733;DHT22;7457;50.960;6.830;2023-02-18T11:14:50;10.10;92.20
14733;DHT22;7457;50.960;6.830;2023-02-18T11:17:30;10.00;93.00
14733;DHT22;7457;50.960;6.830;2023-02-18T11:19:58;10.00;93.20
14733;DHT22;7457;50.960;6.830;2023-02-18T11:22:27;10.00;94.10
14733;DHT22;7457;50.960;6.830;2023-02-18T11:24:59;10.10;94.60
14733;DHT22;7457;50.960;6.830;2023-02-18T11:27:33;10.20;94.50
14733;DHT22;7457;50.960;6.830;2023-02-18T11:30:06;10.20;94.40
14733;DHT22;7457;50.960;6.830;2023-02-18T11:32:41;10.20;94.60
14733;DHT22;7457;50.960;6.830;2023-02-18T11:35:20;10.20;94.70
14733;DHT22;7457;50.960;6.830;2023-02-18T11:37:47;10.10;94.90
14733;DHT22;7457;50.960;6.830;2023-02-18T11:40:34;10.00;95.20
14733;DHT22;7457;50.960;6.830;2023-02-18T11:43:11;9.90;95.70
14733;DHT22;7457;50.960;6.830;2023-02-18T11:45:37;9.80;95.90
14733;DHT22;7457;50.960;6.830;2023-02-18T11:48:15;9.80;96.30
14733;DHT22;7457;50.960;6.830;2023-02-18T11:50:41;9.80;97.30
14733;DHT22;7457;50.960;6.830;2023-02-18T11:53:31;9.70;97.50
14733;DHT22;7457;50.960;6.830;2023-02-18T11:55:59;9.70;97.90
14733;DHT22;7457;50.960;6.830;2023-02-18T11:58:26;9.70;98.30
14733;DHT22;7457;50.960;6.830;2023-02-18T12:00:58;9.70;98.70
14733;DHT22;7457;50.960;6.830;2023-02-18T12:06:22;9.60;99.10
14733;DHT22;7457;50.960;6.830;2023-02-18T12:08:53;9.60;99.60
14733;DHT22;7457;50.960;6.830;2023-02-18T12:11:32;9.60;99.80
14733;DHT22;7457;50.960;6.830;2023-02-18T12:13:59;9.60;99.80
14733;DHT22;7457;50.960;6.830;2023-02-18T12:35:30;9.60;100.00
14733;DHT22;7457;50.960;6.830;2023-02-18T12:38:11;9.60;100.00
14733;DHT22;7457;50.960;6.830;2023-02-18T12:46:45;9.70;100.00
14733;DHT22;7457;50.960;6.830;2023-02-18T12:52:29;9.80;100.00
14733;DHT22;7457;50.960;6.830;2023-02-18T12:57:42;9.90;100.00
14733;DHT22;7457;50.960;6.830;2023-02-18T13:00:50;10.00;100.00
14733;DHT22;7457;50.960;6.830;2023-02-18T13:14:46;9.90;100.00
14733;DHT22;7457;50.960;6.830;2023-02-18T13:17:16;9.90;100.00
14733;DHT22;7457;50.960;6.830;2023-02-18T13:22:14;9.90;100.00
14733;DHT22;7457;50.960;6.830;2023-02-18T13:24:43;9.90;100.00
14733;DHT22;7457;50.960;6.830;2023-02-18T13:30:30;9.90;100.00
14733;DHT22;7457;50.960;6.830;2023-02-18T13:40:42;9.90;100.00
14733;DHT22;7457;50.960;6.830;2023-02-18T13:43:35;9.90;100.00
14733;DHT22;7457;50.960;6.830;2023-02-18T13:48:40;10.00;100.00
14733;DHT22;7457;50.960;6.830;2023-02-18T13:51:07;10.10;100.00
14733;DHT22;7457;50.960;6.830;2023-02-18T13:53:36;10.10;100.00
14733;DHT22;7457;50.960;6.830;2023-02-18T13:56:06;10.10;100.00
14733;DHT22;7457;50.960;6.830;2023-02-18T14:06:16;9.90;100.00
14733;DHT22;7457;50.960;6.830;2023-02-18T14:08:42;9.90;100.00
14733;DHT22;7457;50.960;6.830;2023-02-18T14:13:40;9.80;100.00
14733;DHT22;7457;50.960;6.830;2023-02-18T14:16:06;9.80;100.00
14733;DHT22;7457;50.960;6.830;2023-02-18T14:21:37;9.90;100.00
14733;DHT22;7457;50.960;6.830;2023-02-18T14:24:05;9.90;100.00
14733;DHT22;7457;50.960;6.830;2023-02-18T14:26:34;9.90;100.00
14733;DHT22;7457;50.960;6.830;2023-02-18T14:29:19;9.90;100.00
14733;DHT22;7457;50.960;6.830;2023-02-18T14:31:49;9.90;100.00
14733;DHT22;7457;50.960;6.830;2023-02-18T14:39:29;10.00;100.00
14733;DHT22;7457;50.960;6.830;2023-02-18T14:45:24;10.00;100.00
14733;DHT22;7457;50.960;6.830;2023-02-18T14:48:27;10.10;100.00
14733;DHT22;7457;50.960;6.830;2023-02-18T14:50:58;10.10;99.90
14733;DHT22;7457;50.960;6.830;2023-02-18T14:53:25;10.10;100.00
14733;DHT22;7457;50.960;6.830;2023-02-18T14:56:03;10.10;100.00
14733;DHT22;7457;50.960;6.830;2023-02-18T14:58:37;10.10;100.00
14733;DHT22;7457;50.960;6.830;2023-02-18T15:01:15;10.10;100.00
14733;DHT22;7457;50.960;6.830;2023-02-18T15:03:41;10.20;100.00
14733;DHT22;7457;50.960;6.830;2023-02-18T15:06:28;10.20;100.00
14733;DHT22;7457;50.960;6.830;2023-02-18T15:09:06;10.20;100.00
14733;DHT22;7457;50.960;6.830;2023-02-18T15:11:40;10.10;100.00
14733;DHT22;7457;50.960;6.830;2023-02-18T15:14:20;10.10;100.00
14733;DHT22;7457;50.960;6.830;2023-02-18T15:16:47;10.10;100.00
14733;DHT22;7457;50.960;6.830;2023-02-18T15:19:16;10.10;100.00
14733;DHT22;7457;50.960;6.830;2023-02-18T15:21:45;10.10;100.00
14733;DHT22;7457;50.960;6.830;2023-02-18T15:24:32;10.10;100.00
14733;DHT22;7457;50.960;6.830;2023-02-18T15:27:01;10.20;100.00
14733;DHT22;7457;50.960;6.830;2023-02-18T15:29:31;10.20;100.00
14733;DHT22;7457;50.960;6.830;2023-02-18T15:31:58;10.30;100.00
14733;DHT22;7457;50.960;6.830;2023-02-18T15:36:53;10.30;100.00
14733;DHT22;7457;50.960;6.830;2023-02-18T15:39:19;10.40;99.70
14733;DHT22;7457;50.960;6.830;2023-02-18T15:41:45;10.40;99.50
14733;DHT22;7457;50.960;6.830;2023-02-18T15:44:21;10.40;99.60
14733;DHT22;7457;50.960;6.830;2023-02-18T15:46:47;10.30;99.00
14733;DHT22;7457;50.960;6.830;2023-02-18T15:49:19;10.30;99.10
14733;DHT22;7457;50.960;6.830;2023-02-18T15:51:46;10.30;99.20
14733;DHT22;7457;50.960;6.830;2023-02-18T15:54:20;10.20;99.50
14733;DHT22;7457;50.960;6.830;2023-02-18T15:56:50;10.10;99.50
14733;DHT22;7457;50.960;6.830;2023-02-18T16:01:43;10.10;99.50
14733;DHT22;7457;50.960;6.830;2023-02-18T16:04:13;10.10;99.40
14733;DHT22;7457;50.960;6.830;2023-02-18T16:06:45;10.10;99.40
14733;DHT22;7457;50.960;6.830;2023-02-18T16:09:30;10.10;99.50
14733;DHT22;7457;50.960;6.830;2023-02-18T16:12:01;10.10;99.40
14733;DHT22;7457;50.960;6.830;2023-02-18T16:14:32;10.10;99.40
14733;DHT22;7457;50.960;6.830;2023-02-18T16:19:51;10.10;99.00
14733;DHT22;7457;50.960;6.830;2023-02-18T16:22:49;10.10;98.80
14733;DHT22;7457;50.960;6.830;2023-02-18T16:25:16;10.10;99.10
14733;DHT22;7457;50.960;6.830;2023-02-18T16:30:26;10.10;98.90
14733;DHT22;7457;50.960;6.830;2023-02-18T16:32:54;10.10;98.80
14733;DHT22;7457;50.960;6.830;2023-02-18T16:35:21;10.10;98.70
14733;DHT22;7457;50.960;6.830;2023-02-18T16:37:47;10.10;98.50
14733;DHT22;7457;50.960;6.830;2023-02-18T16:40:37;10.10;98.40
14733;DHT22;7457;50.960;6.830;2023-02-18T16:43:16;10.10;98.30
14733;DHT22;7457;50.960;6.830;2023-02-18T16:45:44;10.10;98.20
14733;DHT22;7457;50.960;6.830;2023-02-18T16:48:30;10.10;98.10
14733;DHT22;7457;50.960;6.830;2023-02-18T16:50:57;10.10;98.00
14733;DHT22;7457;50.960;6.830;2023-02-18T16:53:23;10.10;98.00
14733;DHT22;7457;50.960;6.830;2023-02-18T16:55:49;10.10;97.90
14733;DHT22;7457;50.960;6.830;2023-02-18T16:58:15;10.10;97.90
14733;DHT22;7457;50.960;6.830;2023-02-18T17:00:42;10.10;97.80
14733;DHT22;7457;50.960;6.830;2023-02-18T17:03:09;10.10;97.80
14733;DHT22;7457;50.960;6.830;2023-02-18T17:05:35;10.10;97.80
14733;DHT22;7457;50.960;6.830;2023-02-18T17:08:23;10.10;97.70
14733;DHT22;7457;50.960;6.830;2023-02-18T17:10:54;10.10;97.70
14733;DHT22;7457;50.960;6.830;2023-02-18T17:13:23;10.10;97.60
14733;DHT22;7457;50.960;6.830;2023-02-18T17:15:51;10.10;97.60
14733;DHT22;7457;50.960;6.830;2023-02-18T17:18:17;10.10;97.50
14733;DHT22;7457;50.960;6.830;2023-02-18T17:20:43;10.10;97.50
14733;DHT22;7457;50.960;6.830;2023-02-18T17:23:18;10.10;97.40
14733;DHT22;7457;50.960;6.830;2023-02-18T17:25:46;10.10;97.40
14733;DHT22;7457;50.960;6.830;2023-02-18T17:28:13;10.20;97.40
14733;DHT22;7457;50.960;6.830;2023-02-18T17:30:41;10.20;97.30
14733;DHT22;7457;50.960;6.830;2023-02-18T17:33:12;10.20;97.30
14733;DHT22;7457;50.960;6.830;2023-02-18T17:35:39;10.20;97.30
14733;DHT22;7457;50.960;6.830;2023-02-18T17:38:16;10.20;97.20
14733;DHT22;7457;50.960;6.830;2023-02-18T17:40:42;10.20;97.20
14733;DHT22;7457;50.960;6.830;2023-02-18T17:43:12;10.20;97.10
14733;DHT22;7457;50.960;6.830;2023-02-18T17:45:52;10.20;97.10
14733;DHT22;7457;50.960;6.830;2023-02-18T17:48:18;10.20;97.20
14733;DHT22;7457;50.960;6.830;2023-02-18T17:50:44;10.10;97.30
14733;DHT22;7457;50.960;6.830;2023-02-18T17:53:14;10.10;97.50
14733;DHT22;7457;50.960;6.830;2023-02-18T17:55:40;10.00;97.70
14733;DHT22;7457;50.960;6.830;2023-02-18T17:58:07;10.00;97.90
14733;DHT22;7457;50.960;6.830;2023-02-18T18:00:35;10.00;98.10
14733;DHT22;7457;50.960;6.830;2023-02-18T18:03:01;9.90;98.30
14733;DHT22;7457;50.960;6.830;2023-02-18T18:05:36;9.90;98.60
14733;DHT22;7457;50.960;6.830;2023-02-18T18:08:03;9.90;98.90
14733;DHT22;7457;50.960;6.830;2023-02-18T18:10:32;9.90;99.10
14733;DHT22;7457;50.960;6.830;2023-02-18T18:13:03;9.80;99.10
14733;DHT22;7457;50.960;6.830;2023-02-18T18:15:33;9.80;99.30
14733;DHT22;7457;50.960;6.830;2023-02-18T18:18:00;9.80;99.40
14733;DHT22;7457;50.960;6.830;2023-02-18T18:20:28;9.80;99.50
14733;DHT22;7457;50.960;6.830;2023-02-18T18:22:55;9.80;99.60